createdAt,value
2022-08-15T00:02:34.660Z,20.30
2022-08-15T00:05:15.827Z,20.40
2022-08-15T00:07:48.301Z,20.40
2022-08-15T00:11:01.120Z,20.30
2022-08-15T00:13:21.973Z,20.10
2022-08-15T00:15:52.740Z,20.10
2022-08-15T00:18:21.154Z,20.10
2022-08-15T00:20:50.484Z,20.10
2022-08-15T00:23:24.660Z,20.10
2022-08-15T00:25:57.823Z,20.20
2022-08-15T00:28:35.463Z,20.20
2022-08-15T00:31:10.719Z,20.20
2022-08-15T00:33:39.822Z,20.20
2022-08-15T00:36:52.096Z,20.20
2022-08-15T00:39:00.344Z,20.20
2022-08-15T00:41:41.790Z,20.20
2022-08-15T00:45:01.214Z,20.20
2022-08-15T00:47:21.937Z,20.20
2022-08-15T00:50:02.882Z,20.20
2022-08-15T00:52:39.893Z,20.30
2022-08-15T00:55:16.144Z,20.30
2022-08-15T00:57:59.763Z,20.30
2022-08-15T01:00:48.973Z,20.30
2022-08-15T01:03:56.314Z,20.30
2022-08-15T01:06:31.392Z,20.30
2022-08-15T01:08:59.816Z,20.30
2022-08-15T01:11:56.176Z,20.40
2022-08-15T01:14:55.319Z,20.40
2022-08-15T01:17:13.101Z,20.40
2022-08-15T01:19:51.992Z,20.50
2022-08-15T01:22:55.222Z,20.50
2022-08-15T01:26:41.814Z,20.60
2022-08-15T01:28:30.903Z,20.60
2022-08-15T01:31:12.445Z,20.50
2022-08-15T01:33:52.815Z,20.40
2022-08-15T01:36:32.846Z,20.40
2022-08-15T01:39:12.556Z,20.40
2022-08-15T01:42:27.727Z,20.40
2022-08-15T01:44:59.789Z,20.40
2022-08-15T01:47:36.206Z,20.40
2022-08-15T01:50:29.564Z,20.40
2022-08-15T01:53:19.269Z,20.30
2022-08-15T01:55:54.947Z,20.30
2022-08-15T01:58:23.474Z,20.30
2022-08-15T02:00:57.916Z,20.40
2022-08-15T02:03:48.991Z,20.40
2022-08-15T02:06:35.286Z,20.40
2022-08-15T02:09:17.147Z,20.50
2022-08-15T02:11:58.366Z,20.50
2022-08-15T02:14:38.934Z,20.50
2022-08-15T02:17:07.613Z,20.50
2022-08-15T02:19:45.187Z,20.50
2022-08-15T02:22:25.884Z,20.50
2022-08-15T02:24:56.812Z,20.50
2022-08-15T02:27:29.262Z,20.50
2022-08-15T02:29:57.454Z,20.50
2022-08-15T02:32:30.281Z,20.50
2022-08-15T02:34:58.532Z,20.50
2022-08-15T02:37:25.684Z,20.40
2022-08-15T02:39:57.720Z,20.40
2022-08-15T02:42:25.873Z,20.40
2022-08-15T02:44:53.097Z,20.40
2022-08-15T02:47:23.533Z,20.40
2022-08-15T02:49:51.529Z,20.40
2022-08-15T02:52:20.403Z,20.40
2022-08-15T02:55:01.708Z,20.40
2022-08-15T02:57:59.662Z,20.30
2022-08-15T03:00:20.327Z,20.20
2022-08-15T03:03:17.525Z,20.20
2022-08-15T03:05:54.549Z,20.20
2022-08-15T03:08:22.424Z,20.30
2022-08-15T03:10:53.570Z,20.30
2022-08-15T03:13:22.067Z,20.20
2022-08-15T03:15:57.803Z,20.30
2022-08-15T03:18:31.668Z,20.40
2022-08-15T03:21:02.485Z,20.50
2022-08-15T03:23:41.821Z,20.50
2022-08-15T03:26:25.512Z,20.50
2022-08-15T03:29:00.871Z,20.60
2022-08-15T03:31:29.500Z,20.70
2022-08-15T03:34:09.131Z,20.60
2022-08-15T03:36:37.728Z,20.60
2022-08-15T03:39:06.179Z,20.60
2022-08-15T03:41:36.849Z,20.70
2022-08-15T03:44:04.865Z,20.70
2022-08-15T03:46:32.920Z,20.70
2022-08-15T03:49:09.689Z,20.70
2022-08-15T03:51:37.239Z,20.70
2022-08-15T03:54:05.151Z,20.70
2022-08-15T03:56:33.853Z,20.70
2022-08-15T03:59:03.401Z,20.70
2022-08-15T04:01:35.232Z,20.70
2022-08-15T04:04:02.993Z,20.70
2022-08-15T04:06:33.416Z,20.70
2022-08-15T04:09:04.916Z,20.70
2022-08-15T04:11:40.604Z,20.70
2022-08-15T04:14:33.202Z,20.70
2022-08-15T04:17:11.528Z,20.80
2022-08-15T04:19:47.943Z,20.80
2022-08-15T04:22:28.053Z,20.70
2022-08-15T04:25:38.471Z,20.70
2022-08-15T04:28:28.419Z,20.80
2022-08-15T04:31:07.465Z,20.80
2022-08-15T04:34:45.055Z,20.80
2022-08-15T04:36:29.501Z,20.80
2022-08-15T04:38:59.828Z,20.80
2022-08-15T04:41:36.805Z,20.80
2022-08-15T04:44:17.182Z,20.80
2022-08-15T04:46:45.329Z,20.90
2022-08-15T04:49:13.570Z,20.90
2022-08-15T04:51:44.921Z,20.90
2022-08-15T04:54:12.432Z,20.90
2022-08-15T04:56:51.319Z,20.90
2022-08-15T04:59:35.915Z,20.90
2022-08-15T05:02:55.176Z,21.00
2022-08-15T05:04:55.560Z,21.10
2022-08-15T05:07:27.502Z,21.10
2022-08-15T05:10:03.283Z,21.20
2022-08-15T05:12:33.939Z,21.30
2022-08-15T05:15:04.045Z,21.30
2022-08-15T05:17:56.421Z,21.30
2022-08-15T05:20:20.851Z,21.30
2022-08-15T05:23:02.837Z,21.30
2022-08-15T05:25:32.152Z,21.20
2022-08-15T05:28:00.683Z,21.20
2022-08-15T05:30:57.683Z,21.20
2022-08-15T05:33:55.330Z,21.20
2022-08-15T05:36:26.966Z,21.20
2022-08-15T05:39:15.089Z,21.10
2022-08-15T05:42:13.093Z,21.10
2022-08-15T05:45:06.442Z,21.10
2022-08-15T05:48:05.081Z,21.10
2022-08-15T05:51:00.486Z,21.10
2022-08-15T05:53:54.165Z,21.10
2022-08-15T05:56:46.338Z,21.10
2022-08-15T05:59:17.923Z,21.10
2022-08-15T06:02:34.928Z,21.10
2022-08-15T06:05:12.481Z,21.10
2022-08-15T06:07:55.972Z,21.00
2022-08-15T06:10:51.138Z,21.00
2022-08-15T06:13:30.368Z,21.00
2022-08-15T06:16:41.033Z,21.00
2022-08-15T06:18:56.692Z,21.00
2022-08-15T06:21:32.940Z,21.10
2022-08-15T06:24:26.168Z,21.20
2022-08-15T06:27:15.857Z,21.20
2022-08-15T06:29:49.569Z,21.40
2022-08-15T06:32:59.011Z,21.40
2022-08-15T06:36:12.167Z,21.50
2022-08-15T06:38:50.025Z,21.50
2022-08-15T06:41:50.376Z,21.60
2022-08-15T06:44:21.827Z,21.70
2022-08-15T06:47:06.014Z,21.70
2022-08-15T06:49:44.324Z,21.80
2022-08-15T06:52:17.110Z,21.90
2022-08-15T06:54:45.508Z,22.10
2022-08-15T06:57:34.541Z,22.10
2022-08-15T07:00:35.746Z,22.20
2022-08-15T07:03:36.395Z,22.40
2022-08-15T07:06:05.004Z,22.70
2022-08-15T07:08:59.319Z,23.30
2022-08-15T07:11:54.607Z,23.70
2022-08-15T07:14:24.971Z,23.80
2022-08-15T07:17:18.304Z,23.70
2022-08-15T07:19:55.677Z,23.70
2022-08-15T07:22:35.208Z,24.00
2022-08-15T07:25:09.841Z,24.00
2022-08-15T07:27:39.352Z,24.00
2022-08-15T07:30:36.442Z,24.10
2022-08-15T07:33:05.553Z,24.30
2022-08-15T07:35:35.985Z,24.40
2022-08-15T07:38:25.380Z,24.30
2022-08-15T07:41:34.340Z,24.20
2022-08-15T07:44:21.540Z,24.10
2022-08-15T07:46:58.647Z,23.90
2022-08-15T07:49:33.499Z,23.50
2022-08-15T07:52:03.158Z,23.40
2022-08-15T07:54:50.631Z,23.40
2022-08-15T08:00:37.083Z,23.30
2022-08-15T08:03:21.663Z,23.30
2022-08-15T08:05:51.441Z,23.30
2022-08-15T08:08:43.967Z,23.30
2022-08-15T08:11:24.725Z,23.30
2022-08-15T08:14:41.075Z,23.30
2022-08-15T08:17:09.082Z,23.30
2022-08-15T08:19:54.075Z,23.40
2022-08-15T08:22:43.171Z,23.50
2022-08-15T08:25:41.756Z,23.60
2022-08-15T08:28:18.003Z,23.70
2022-08-15T08:31:22.582Z,23.70
2022-08-15T08:34:07.775Z,23.90
2022-08-15T08:36:43.146Z,24.00
2022-08-15T08:39:36.085Z,24.30
2022-08-15T08:42:23.416Z,24.60
2022-08-15T08:45:16.576Z,24.80
2022-08-15T08:47:57.047Z,24.90
2022-08-15T08:50:36.110Z,25.00
2022-08-15T08:53:13.167Z,24.90
2022-08-15T08:55:45.872Z,24.80
2022-08-15T08:58:36.549Z,24.90
2022-08-15T09:01:09.954Z,24.80
2022-08-15T09:03:50.645Z,25.00
2022-08-15T09:06:27.000Z,25.60
2022-08-15T09:09:13.118Z,26.40
2022-08-15T09:11:45.979Z,27.50
2022-08-15T09:14:34.996Z,27.70
2022-08-15T09:17:36.349Z,27.70
2022-08-15T09:20:22.172Z,28.20
2022-08-15T09:23:02.788Z,29.10
2022-08-15T09:25:37.205Z,29.20
2022-08-15T09:28:28.791Z,28.60
2022-08-15T09:31:03.679Z,28.90
2022-08-15T09:33:45.182Z,29.00
2022-08-15T09:36:33.011Z,28.80
2022-08-15T09:39:12.689Z,28.40
2022-08-15T09:41:55.066Z,28.20
2022-08-15T09:44:57.380Z,28.70
2022-08-15T09:47:49.430Z,29.60
2022-08-15T09:50:33.383Z,30.10
2022-08-15T09:53:20.259Z,30.90
2022-08-15T09:55:54.216Z,31.40
2022-08-15T09:58:27.517Z,31.90
2022-08-15T10:01:11.444Z,31.50
2022-08-15T10:03:53.204Z,30.90
2022-08-15T10:06:34.296Z,30.20
2022-08-15T10:09:09.486Z,29.70
2022-08-15T10:11:50.206Z,28.90
2022-08-15T10:14:21.962Z,28.40
2022-08-15T10:16:56.747Z,28.50
2022-08-15T10:19:35.909Z,28.70
2022-08-15T10:22:44.811Z,29.30
2022-08-15T10:25:18.934Z,30.30
2022-08-15T10:28:38.678Z,30.90
2022-08-15T10:31:02.432Z,31.20
2022-08-15T10:33:35.204Z,31.60
2022-08-15T10:36:20.776Z,32.20
2022-08-15T10:39:04.576Z,32.80
2022-08-15T10:41:53.814Z,32.90
2022-08-15T10:44:34.991Z,32.90
2022-08-15T10:47:27.004Z,32.20
2022-08-15T10:50:23.893Z,31.90
2022-08-15T10:53:29.026Z,31.30
2022-08-15T10:57:05.524Z,31.50
2022-08-15T10:59:20.250Z,31.70
2022-08-15T11:01:52.824Z,30.60
2022-08-15T11:04:48.219Z,30.40
2022-08-15T11:07:35.928Z,30.50
2022-08-15T11:10:21.006Z,30.30
2022-08-15T11:13:03.963Z,29.90
2022-08-15T11:15:47.313Z,29.90
2022-08-15T11:18:24.501Z,29.80
2022-08-15T11:20:55.161Z,29.50
2022-08-15T11:23:42.395Z,30.00
2022-08-15T11:26:19.235Z,30.40
2022-08-15T11:28:57.542Z,31.10
2022-08-15T11:31:36.651Z,31.80
2022-08-15T11:34:23.801Z,32.30
2022-08-15T11:36:54.543Z,32.00
2022-08-15T11:39:24.772Z,31.60
2022-08-15T11:41:58.986Z,31.50
2022-08-15T11:44:58.485Z,32.00
2022-08-15T11:47:30.474Z,32.40
2022-08-15T11:50:03.285Z,32.80
2022-08-15T11:52:40.241Z,32.70
2022-08-15T11:55:33.509Z,33.10
2022-08-15T11:58:21.270Z,33.40
2022-08-15T12:01:01.088Z,33.20
2022-08-15T12:04:41.752Z,32.70
2022-08-15T12:06:30.264Z,33.00
2022-08-15T12:09:10.941Z,33.30
2022-08-15T12:11:52.506Z,33.10
2022-08-15T12:14:28.455Z,32.90
2022-08-15T12:17:08.109Z,33.40
2022-08-15T12:20:24.217Z,33.20
2022-08-15T12:22:45.340Z,33.40
2022-08-15T12:25:44.533Z,33.50
2022-08-15T12:28:33.143Z,33.00
2022-08-15T12:31:03.873Z,33.40
2022-08-15T12:33:32.792Z,33.60
2022-08-15T12:36:03.693Z,33.50
2022-08-15T12:38:32.689Z,33.50
2022-08-15T12:42:46.832Z,33.50
2022-08-15T12:43:49.963Z,33.20
2022-08-15T12:46:23.498Z,33.00
2022-08-15T12:48:57.754Z,32.90
2022-08-15T12:51:29.410Z,33.50
2022-08-15T12:53:57.549Z,34.00
2022-08-15T12:56:43.693Z,34.40
2022-08-15T12:59:13.015Z,34.70
2022-08-15T13:01:56.836Z,34.40
2022-08-15T13:04:41.094Z,34.10
2022-08-15T13:07:15.648Z,33.80
2022-08-15T13:09:58.225Z,34.00
2022-08-15T13:12:26.577Z,34.20
2022-08-15T13:14:53.639Z,34.30
2022-08-15T13:17:46.203Z,33.70
2022-08-15T13:20:28.646Z,33.50
2022-08-15T13:23:14.455Z,33.40
2022-08-15T13:25:41.784Z,33.40
2022-08-15T13:28:14.594Z,33.60
2022-08-15T13:31:01.686Z,33.60
2022-08-15T13:33:29.635Z,33.60
2022-08-15T13:35:59.647Z,33.70
2022-08-15T13:38:31.348Z,33.80
2022-08-15T13:41:02.411Z,33.30
2022-08-15T13:43:55.712Z,33.50
2022-08-15T13:46:28.388Z,33.60
2022-08-15T13:49:05.229Z,33.20
2022-08-15T13:52:23.923Z,33.20
2022-08-15T13:54:46.475Z,33.10
2022-08-15T13:57:22.284Z,33.20
2022-08-15T13:59:57.419Z,33.30
2022-08-15T14:02:35.992Z,33.10
2022-08-15T14:05:07.564Z,32.60
2022-08-15T14:07:52.850Z,32.20
2022-08-15T14:10:59.511Z,32.30
2022-08-15T14:13:18.362Z,32.10
2022-08-15T14:16:09.256Z,31.80
2022-08-15T14:18:50.941Z,32.10
2022-08-15T14:21:26.748Z,32.40
2022-08-15T14:23:57.861Z,32.70
2022-08-15T14:27:09.479Z,32.60
2022-08-15T14:29:48.105Z,32.70
2022-08-15T14:32:52.281Z,32.60
2022-08-15T14:35:11.525Z,32.60
2022-08-15T14:37:48.527Z,32.50
2022-08-15T14:40:23.987Z,32.60
2022-08-15T14:42:57.786Z,32.60
2022-08-15T14:46:33.254Z,32.50
2022-08-15T14:48:48.162Z,32.40
2022-08-15T14:51:56.703Z,32.60
2022-08-15T14:54:04.214Z,32.50
2022-08-15T14:56:33.653Z,32.30
2022-08-15T14:59:05.301Z,32.20
2022-08-15T15:01:33.810Z,32.30
2022-08-15T15:04:06.563Z,32.40
2022-08-15T15:06:37.825Z,32.30
2022-08-15T15:09:07.214Z,32.00
2022-08-15T15:11:34.974Z,31.50
2022-08-15T15:14:02.313Z,31.20
2022-08-15T15:16:41.678Z,31.20
2022-08-15T15:19:11.200Z,31.20
2022-08-15T15:21:38.915Z,31.20
2022-08-15T15:24:12.323Z,31.30
2022-08-15T15:26:55.092Z,31.40
2022-08-15T15:29:28.163Z,31.50
2022-08-15T15:32:29.594Z,31.60
2022-08-15T15:35:00.110Z,31.50
2022-08-15T15:37:27.761Z,31.40
2022-08-15T15:39:55.556Z,31.30
2022-08-15T15:42:26.519Z,31.30
2022-08-15T15:45:00.932Z,31.30
2022-08-15T15:47:29.114Z,31.10
2022-08-15T15:50:26.137Z,31.00
2022-08-15T15:53:01.288Z,30.70
2022-08-15T15:55:28.889Z,30.40
2022-08-15T15:58:02.722Z,30.30
2022-08-15T16:00:46.035Z,30.30
2022-08-15T16:03:20.581Z,30.20
2022-08-15T16:06:03.530Z,30.10
2022-08-15T16:08:46.805Z,30.00
2022-08-15T16:11:26.012Z,29.70
2022-08-15T16:14:28.603Z,29.50
2022-08-15T16:17:07.760Z,29.20
2022-08-15T16:19:41.025Z,29.00
2022-08-15T16:22:19.378Z,28.70
2022-08-15T16:25:02.148Z,28.50
2022-08-15T16:27:38.146Z,28.30
2022-08-15T16:30:30.241Z,28.00
2022-08-15T16:33:17.190Z,27.80
2022-08-15T16:35:55.896Z,27.50
2022-08-15T16:39:05.292Z,27.40
2022-08-15T16:41:47.143Z,27.20
2022-08-15T16:44:25.063Z,27.10
2022-08-15T16:47:29.172Z,26.90
2022-08-15T16:50:09.892Z,26.90
2022-08-15T16:52:41.129Z,26.90
2022-08-15T16:55:34.509Z,26.90
2022-08-15T16:58:35.275Z,26.80
2022-08-15T17:01:14.545Z,26.60
2022-08-15T17:04:11.828Z,26.60
2022-08-15T17:06:53.694Z,26.40
2022-08-15T17:10:16.350Z,26.30
2022-08-15T17:13:10.292Z,26.20
2022-08-15T17:15:53.044Z,26.10
2022-08-15T17:18:48.965Z,25.90
2022-08-15T17:21:19.442Z,25.50
2022-08-15T17:23:59.745Z,25.00
2022-08-15T17:27:03.732Z,24.70
2022-08-15T17:30:01.525Z,24.40
2022-08-15T17:32:31.206Z,24.00
2022-08-15T17:35:01.213Z,23.80
2022-08-15T17:37:29.853Z,23.60
2022-08-15T17:40:29.997Z,23.50
2022-08-15T17:43:02.759Z,23.30
2022-08-15T17:45:42.501Z,23.10
2022-08-15T17:48:54.931Z,23.10
2022-08-15T17:51:34.394Z,23.00
2022-08-15T17:54:21.660Z,22.90
2022-08-15T17:57:04.207Z,22.90
2022-08-15T17:59:53.532Z,22.80
2022-08-15T18:02:30.471Z,22.60
2022-08-15T18:05:03.000Z,22.60
2022-08-15T18:07:33.743Z,22.40
2022-08-15T18:10:30.566Z,22.40
2022-08-15T18:13:01.380Z,22.30
2022-08-15T18:15:35.600Z,22.20
2022-08-15T18:18:21.141Z,22.20
2022-08-15T18:21:08.985Z,22.30
2022-08-15T18:23:53.336Z,22.40
2022-08-15T18:26:53.366Z,22.50
2022-08-15T18:29:20.599Z,22.50
2022-08-15T18:31:55.407Z,22.50
2022-08-15T18:34:53.001Z,22.40
2022-08-15T18:37:36.251Z,22.40
2022-08-15T18:40:52.577Z,22.40
2022-08-15T18:43:25.196Z,22.30
2022-08-15T18:46:11.445Z,22.30
2022-08-15T18:48:39.535Z,22.20
2022-08-15T18:51:16.947Z,22.20
2022-08-15T18:54:46.879Z,22.10
2022-08-15T18:57:03.965Z,22.00
2022-08-15T18:59:35.810Z,21.90
2022-08-15T19:02:26.674Z,21.90
2022-08-15T19:05:14.077Z,21.90
2022-08-15T19:08:02.117Z,21.80
2022-08-15T19:10:34.332Z,21.80
2022-08-15T19:13:16.761Z,21.70
2022-08-15T19:16:09.314Z,21.70
2022-08-15T19:18:45.327Z,21.70
2022-08-15T19:21:23.146Z,21.60
2022-08-15T19:24:00.161Z,21.50
2022-08-15T19:26:54.994Z,21.50
2022-08-15T19:29:44.990Z,21.50
2022-08-15T19:32:19.655Z,21.40
2022-08-15T19:35:10.166Z,21.20
2022-08-15T19:37:37.118Z,21.30
2022-08-15T19:40:19.220Z,21.10
2022-08-15T19:42:58.042Z,21.10
2022-08-15T19:45:38.407Z,21.00
2022-08-15T19:48:21.646Z,20.90
2022-08-15T19:51:22.659Z,21.00
2022-08-15T19:55:22.542Z,20.90
2022-08-15T19:57:52.315Z,20.80
2022-08-15T20:00:19.775Z,20.70
2022-08-15T20:03:04.394Z,20.70
2022-08-15T20:06:05.625Z,20.60
2022-08-15T20:09:01.817Z,20.50
2022-08-15T20:11:41.771Z,20.50
2022-08-15T20:14:55.632Z,20.40
2022-08-15T20:17:58.489Z,20.30
2022-08-15T20:20:28.362Z,20.30
2022-08-15T20:23:42.115Z,20.20
2022-08-15T20:26:36.695Z,20.10
2022-08-15T20:29:33.145Z,20.00
2022-08-15T20:32:36.660Z,20.00
2022-08-15T20:35:25.133Z,20.00
2022-08-15T20:38:07.497Z,19.90
2022-08-15T20:40:51.089Z,19.80
2022-08-15T20:43:52.933Z,19.80
2022-08-15T20:46:44.925Z,19.70
2022-08-15T20:49:34.649Z,19.60
2022-08-15T20:52:40.962Z,19.50
2022-08-15T20:55:24.257Z,19.40
2022-08-15T20:57:53.077Z,19.30
2022-08-15T21:01:08.112Z,19.30
2022-08-15T21:04:01.750Z,19.20
2022-08-15T21:06:20.405Z,19.20
2022-08-15T21:09:08.597Z,19.00
2022-08-15T21:11:51.289Z,18.90
2022-08-15T21:15:08.456Z,18.90
2022-08-15T21:17:32.637Z,18.80
2022-08-15T21:20:19.609Z,18.80
2022-08-15T21:22:55.341Z,18.80
2022-08-15T21:25:42.173Z,18.90
2022-08-15T21:28:10.382Z,18.90
2022-08-15T21:31:35.285Z,18.90
2022-08-15T21:34:05.592Z,18.80
2022-08-15T21:36:53.540Z,18.90
2022-08-15T21:39:54.672Z,18.90
2022-08-15T21:42:23.885Z,18.90
2022-08-15T21:45:10.062Z,18.80
2022-08-15T21:47:48.500Z,18.90
2022-08-15T21:50:41.854Z,18.80
2022-08-15T21:53:33.294Z,18.80
2022-08-15T21:56:26.021Z,18.80
2022-08-15T22:00:20.395Z,18.80
2022-08-15T22:02:37.659Z,18.80
2022-08-15T22:05:08.660Z,18.90
2022-08-15T22:07:36.090Z,18.80
2022-08-15T22:10:18.414Z,18.60
2022-08-15T22:12:48.830Z,18.60
2022-08-15T22:15:18.849Z,18.50
2022-08-15T22:17:50.232Z,18.40
2022-08-15T22:20:33.412Z,18.30
2022-08-15T22:23:03.235Z,18.30
2022-08-15T22:25:40.555Z,18.20
2022-08-15T22:28:51.476Z,18.10
2022-08-15T22:31:01.693Z,18.00
2022-08-15T22:33:35.595Z,17.90
2022-08-15T22:36:09.209Z,17.80
2022-08-15T22:38:46.568Z,17.80
2022-08-15T22:41:17.552Z,17.80
2022-08-15T22:44:00.708Z,17.70
2022-08-15T22:46:41.979Z,17.60
2022-08-15T22:49:10.037Z,17.60
2022-08-15T22:51:45.363Z,17.60
2022-08-15T22:54:20.656Z,17.60
2022-08-15T22:56:59.511Z,17.60
2022-08-15T22:59:36.145Z,17.60
2022-08-15T23:02:28.037Z,17.60
2022-08-15T23:05:15.715Z,17.50
2022-08-15T23:07:55.766Z,17.30
2022-08-15T23:10:26.423Z,17.10
2022-08-15T23:12:57.063Z,17.00
2022-08-15T23:15:46.416Z,17.00
2022-08-15T23:18:28.407Z,16.90
2022-08-15T23:20:57.961Z,16.80
2022-08-15T23:23:36.513Z,16.80
2022-08-15T23:26:31.441Z,16.80
2022-08-15T23:28:59.554Z,16.70
2022-08-15T23:31:37.703Z,16.70
2022-08-15T23:34:16.050Z,16.50
2022-08-15T23:37:01.592Z,16.50
2022-08-15T23:40:08.534Z,16.60
2022-08-15T23:42:54.770Z,16.60
2022-08-15T23:45:37.506Z,16.40
2022-08-15T23:48:11.675Z,16.30
2022-08-15T23:50:43.323Z,16.40
2022-08-15T23:53:22.652Z,16.40
2022-08-15T23:56:31.844Z,16.30
2022-08-15T23:58:47.986Z,16.30
